Time;durP1;ratioP1;P1;durP2;ratioP2;P2;SDS_P1;SDS_P2;PMS_P1;PMS_P2;Temp;Humidity;BMP_temperature;BMP_pressure;BME280_temperature;BME280_humidity;BME280_pressure;Samples;Min_cycle;Max_cycle;Signal;HPM_P1;HPM_P2
2022/12/02 00:02:13;;;;;;;0.80;0.80;;;;;;;;;;1829960;77;26289;-44
2022/12/02 00:04:40;;;;;;;1.00;1.00;;;;;;;;;;1828685;77;26307;-39
2022/12/02 00:07:09;;;;;;;0.93;0.93;;;;;;;;;;1829624;77;26332;-45
2022/12/02 00:09:37;;;;;;;1.65;1.02;;;;;;;;;;1797594;78;26377;-44
2022/12/02 00:12:18;;;;;;;0.98;0.98;;;;;;;;;;1849634;77;26762;-41
2022/12/02 00:14:45;;;;;;;0.80;0.80;;;;;;;;;;1797230;79;26234;-38
2022/12/02 00:17:12;;;;;;;0.70;0.70;;;;;;;;;;1796096;78;26224;-44
2022/12/02 00:19:40;;;;;;;1.00;1.00;;;;;;;;;;1760317;80;26310;-37
2022/12/02 00:22:07;;;;;;;0.90;0.90;;;;;;;;;;1797298;78;26314;-39
2022/12/02 00:24:34;;;;;;;0.90;0.90;;;;;;;;;;1791275;78;26297;-40
2022/12/02 00:27:01;;;;;;;0.75;0.75;;;;;;;;;;1794279;78;26226;-44
2022/12/02 00:29:29;;;;;;;1.00;1.00;;;;;;;;;;1800888;78;26974;-43
2022/12/02 00:31:56;;;;;;;1.00;1.00;;;;;;;;;;1799258;78;27138;-42
2022/12/02 00:34:23;;;;;;;2.33;0.80;;;;;;;;;;1795125;78;26708;-40
2022/12/02 00:36:50;;;;;;;0.80;0.80;;;;;;;;;;1769545;80;27078;-43
2022/12/02 00:39:18;;;;;;;0.85;0.85;;;;;;;;;;1756084;81;26318;-39
2022/12/02 00:41:45;;;;;;;1.00;1.00;;;;;;;;;;1831397;76;26220;-39
2022/12/02 00:46:57;;;;;;;0.78;0.78;;;;;;;;;;1833699;77;26192;-38
2022/12/02 00:49:24;;;;;;;0.98;0.98;;;;;;;;;;1845049;77;26334;-39
2022/12/02 00:51:52;;;;;;;0.80;0.80;;;;;;;;;;1824274;77;26242;-39
2022/12/02 00:54:19;;;;;;;0.80;0.80;;;;;;;;;;1825257;76;26232;-38
2022/12/02 00:56:46;;;;;;;0.93;0.70;;;;;;;;;;1840009;77;26703;-38
2022/12/02 00:59:13;;;;;;;0.85;0.85;;;;;;;;;;1832764;78;27005;-37
2022/12/02 01:01:43;;;;;;;0.80;0.80;;;;;;;;;;1833640;77;26228;-37
2022/12/02 01:04:10;;;;;;;0.90;0.90;;;;;;;;;;1830009;77;26361;-41
2022/12/02 01:06:37;;;;;;;0.90;0.90;;;;;;;;;;1828311;77;26309;-38
2022/12/02 01:09:05;;;;;;;0.90;0.90;;;;;;;;;;1829786;76;26223;-38
2022/12/02 01:11:32;;;;;;;0.88;0.88;;;;;;;;;;1833451;77;26240;-41
2022/12/02 01:13:59;;;;;;;0.90;0.90;;;;;;;;;;1833636;77;26728;-37
2022/12/02 01:16:26;;;;;;;0.80;0.80;;;;;;;;;;1799339;78;27227;-44
2022/12/02 01:18:54;;;;;;;0.90;0.90;;;;;;;;;;1802002;78;26316;-38
2022/12/02 01:21:22;;;;;;;0.90;0.90;;;;;;;;;;1797449;78;26655;-45
2022/12/02 01:23:49;;;;;;;0.80;0.80;;;;;;;;;;1784519;79;26214;-39
2022/12/02 01:26:16;;;;;;;0.80;0.80;;;;;;;;;;1798294;79;26995;-46
2022/12/02 01:28:44;;;;;;;0.80;0.80;;;;;;;;;;1829721;77;26286;-38
2022/12/02 01:31:11;;;;;;;1.05;1.00;;;;;;;;;;1825305;78;26215;-38
2022/12/02 01:33:38;;;;;;;0.90;0.90;;;;;;;;;;1798074;78;26290;-38
2022/12/02 01:36:06;;;;;;;0.80;0.80;;;;;;;;;;1800057;79;26250;-40
2022/12/02 01:38:33;;;;;;;0.90;0.90;;;;;;;;;;1830301;76;26195;-44
2022/12/02 01:41:00;;;;;;;0.80;0.80;;;;;;;;;;1834231;76;26232;-40
2022/12/02 01:43:28;;;;;;;0.80;0.80;;;;;;;;;;1832102;77;26719;-40
2022/12/02 01:45:55;;;;;;;1.15;0.90;;;;;;;;;;1836098;77;26224;-39
2022/12/02 01:48:22;;;;;;;0.80;0.80;;;;;;;;;;1829465;77;26626;-42
2022/12/02 01:50:50;;;;;;;0.80;0.80;;;;;;;;;;1825729;77;26314;-40
2022/12/02 01:53:17;;;;;;;0.90;0.90;;;;;;;;;;1833774;76;26293;-38
2022/12/02 01:55:45;;;;;;;1.17;0.80;;;;;;;;;;1833184;77;26314;-39
2022/12/02 01:58:13;;;;;;;0.78;0.78;;;;;;;;;;1833709;78;26306;-42
2022/12/02 02:00:40;;;;;;;0.88;0.88;;;;;;;;;;1795483;79;26677;-48
2022/12/02 02:03:08;;;;;;;0.80;0.80;;;;;;;;;;1799534;78;26229;-40
2022/12/02 02:05:35;;;;;;;1.02;0.90;;;;;;;;;;1799557;78;26595;-39
2022/12/02 02:08:07;;;;;;;0.78;0.78;;;;;;;;;;1755635;80;26255;-42
2022/12/02 02:10:35;;;;;;;0.70;0.70;;;;;;;;;;1799498;78;26297;-42
2022/12/02 02:13:02;;;;;;;0.80;0.80;;;;;;;;;;1755263;80;26374;-42
2022/12/02 02:15:30;;;;;;;0.90;0.90;;;;;;;;;;1787399;78;26232;-42
2022/12/02 02:17:57;;;;;;;0.80;0.80;;;;;;;;;;1755679;80;26675;-41
2022/12/02 02:20:26;;;;;;;0.80;0.80;;;;;;;;;;1830808;77;26208;-38
2022/12/02 02:22:55;;;;;;;0.80;0.80;;;;;;;;;;1832152;76;26649;-39
2022/12/02 02:25:22;;;;;;;0.70;0.70;;;;;;;;;;1816277;78;26748;-41
2022/12/02 02:27:53;;;;;;;0.72;0.72;;;;;;;;;;1799685;78;26726;-38
2022/12/02 02:30:21;;;;;;;0.90;0.90;;;;;;;;;;1757211;81;26252;-39
2022/12/02 02:32:49;;;;;;;0.70;0.70;;;;;;;;;;1833623;78;26745;-40
2022/12/02 02:35:17;;;;;;;0.78;0.78;;;;;;;;;;1827898;78;26220;-42
2022/12/02 02:37:44;;;;;;;0.72;0.72;;;;;;;;;;1830423;76;26654;-38
2022/12/02 02:40:14;;;;;;;0.80;0.80;;;;;;;;;;1830951;77;26271;-43
2022/12/02 02:42:43;;;;;;;1.27;0.80;;;;;;;;;;1821246;77;26219;-43
2022/12/02 02:45:10;;;;;;;0.70;0.70;;;;;;;;;;1825014;78;26306;-38
2022/12/02 02:47:38;;;;;;;0.62;0.62;;;;;;;;;;1830390;77;26669;-40
2022/12/02 02:50:06;;;;;;;0.70;0.70;;;;;;;;;;1832167;77;26298;-44
2022/12/02 02:52:33;;;;;;;0.80;0.80;;;;;;;;;;1832443;76;26216;-44
2022/12/02 02:55:01;;;;;;;0.82;0.82;;;;;;;;;;1799801;78;26237;-42
2022/12/02 02:57:28;;;;;;;0.60;0.60;;;;;;;;;;1756368;80;26779;-38
2022/12/02 02:59:56;;;;;;;0.70;0.70;;;;;;;;;;1825578;77;26728;-43
2022/12/02 03:02:23;;;;;;;0.70;0.70;;;;;;;;;;1799582;78;26230;-44
2022/12/02 03:04:51;;;;;;;0.80;0.80;;;;;;;;;;1757413;81;27020;-39
2022/12/02 03:07:18;;;;;;;0.68;0.68;;;;;;;;;;1831030;76;26232;-41
2022/12/02 03:09:46;;;;;;;0.70;0.70;;;;;;;;;;1830603;78;26215;-51
2022/12/02 03:12:13;;;;;;;0.70;0.70;;;;;;;;;;1794769;78;26192;-39
2022/12/02 03:14:40;;;;;;;0.60;0.60;;;;;;;;;;1791993;79;26706;-40
2022/12/02 03:17:08;;;;;;;0.70;0.70;;;;;;;;;;1802318;79;26194;-38
2022/12/02 03:19:35;;;;;;;0.70;0.70;;;;;;;;;;1792702;79;26199;-39
2022/12/02 03:22:03;;;;;;;0.55;0.55;;;;;;;;;;1792152;78;26245;-37
2022/12/02 03:24:31;;;;;;;0.60;0.60;;;;;;;;;;1777730;79;26646;-40
2022/12/02 03:26:59;;;;;;;0.60;0.60;;;;;;;;;;1767816;81;26341;-40
2022/12/02 03:29:28;;;;;;;0.57;0.57;;;;;;;;;;1846521;76;26223;-43
2022/12/02 03:31:55;;;;;;;0.60;0.60;;;;;;;;;;1810934;78;26241;-40
2022/12/02 03:34:23;;;;;;;0.60;0.60;;;;;;;;;;1803540;78;26244;-40
2022/12/02 03:36:50;;;;;;;0.60;0.60;;;;;;;;;;1767104;79;26964;-40
2022/12/02 03:39:18;;;;;;;0.60;0.60;;;;;;;;;;1834859;76;26258;-37
2022/12/02 03:41:46;;;;;;;0.70;0.70;;;;;;;;;;1839654;77;26220;-40
2022/12/02 03:44:14;;;;;;;0.47;0.47;;;;;;;;;;1809755;78;26230;-39
2022/12/02 03:46:43;;;;;;;0.60;0.60;;;;;;;;;;1755717;79;26280;-36
2022/12/02 03:49:11;;;;;;;0.50;0.50;;;;;;;;;;1844906;78;26633;-36
2022/12/02 03:51:38;;;;;;;0.50;0.50;;;;;;;;;;1844731;76;26285;-40
2022/12/02 03:54:06;;;;;;;0.70;0.70;;;;;;;;;;1806874;78;26664;-41
2022/12/02 03:56:38;;;;;;;0.50;0.50;;;;;;;;;;1805034;78;26246;-37
2022/12/02 03:59:05;;;;;;;0.40;0.40;;;;;;;;;;1803569;78;26178;-36
2022/12/02 04:01:33;;;;;;;0.40;0.40;;;;;;;;;;1806158;78;26190;-40
2022/12/02 04:04:00;;;;;;;0.53;0.53;;;;;;;;;;1805935;78;26186;-37
2022/12/02 04:06:27;;;;;;;0.50;0.50;;;;;;;;;;1804958;78;26347;-42
2022/12/02 04:08:54;;;;;;;0.50;0.50;;;;;;;;;;1783201;78;26306;-36
2022/12/02 04:11:22;;;;;;;0.60;0.60;;;;;;;;;;1800591;78;26252;-38
2022/12/02 04:13:49;;;;;;;0.40;0.40;;;;;;;;;;1802768;78;26241;-39
2022/12/02 04:16:16;;;;;;;0.40;0.40;;;;;;;;;;1795427;78;26183;-37
2022/12/02 04:18:43;;;;;;;0.50;0.50;;;;;;;;;;1796902;78;26264;-40
2022/12/02 04:21:11;;;;;;;1.27;0.50;;;;;;;;;;1795611;80;26218;-37
2022/12/02 04:23:38;;;;;;;0.50;0.50;;;;;;;;;;1796716;78;26249;-39
2022/12/02 04:26:05;;;;;;;0.33;0.33;;;;;;;;;;1813394;78;26214;-41
2022/12/02 04:28:33;;;;;;;0.40;0.40;;;;;;;;;;1796101;78;26277;-40
2022/12/02 04:31:00;;;;;;;0.35;0.35;;;;;;;;;;1790073;78;26274;-43
2022/12/02 04:33:27;;;;;;;0.45;0.45;;;;;;;;;;1796053;78;26186;-37
2022/12/02 04:35:55;;;;;;;0.50;0.50;;;;;;;;;;1796838;80;26408;-40
2022/12/02 04:38:23;;;;;;;0.50;0.50;;;;;;;;;;1797044;78;26731;-42
2022/12/02 04:40:50;;;;;;;0.33;0.33;;;;;;;;;;1797224;78;26253;-39
2022/12/02 04:43:17;;;;;;;0.40;0.40;;;;;;;;;;1785349;78;26146;-37
2022/12/02 04:45:45;;;;;;;0.50;0.50;;;;;;;;;;1798569;78;26964;-39
2022/12/02 04:48:12;;;;;;;0.37;0.37;;;;;;;;;;1796707;78;26676;-42
2022/12/02 04:50:39;;;;;;;0.40;0.40;;;;;;;;;;1795768;78;26186;-40
2022/12/02 04:53:06;;;;;;;0.50;0.50;;;;;;;;;;1797033;78;26277;-41
2022/12/02 04:55:34;;;;;;;0.50;0.50;;;;;;;;;;1796068;78;26203;-43
2022/12/02 04:58:01;;;;;;;0.40;0.40;;;;;;;;;;1795162;78;26218;-42
2022/12/02 05:00:28;;;;;;;0.40;0.40;;;;;;;;;;1822326;77;26194;-38
2022/12/02 05:02:56;;;;;;;0.50;0.50;;;;;;;;;;1828471;77;26700;-40
2022/12/02 05:05:23;;;;;;;0.50;0.50;;;;;;;;;;1826393;77;26233;-43
2022/12/02 05:07:50;;;;;;;0.40;0.40;;;;;;;;;;1825002;77;26253;-40
2022/12/02 05:10:17;;;;;;;0.60;0.60;;;;;;;;;;1822398;77;26222;-43
2022/12/02 05:12:45;;;;;;;0.62;0.60;;;;;;;;;;1850550;76;26212;-38
2022/12/02 05:15:13;;;;;;;0.55;0.55;;;;;;;;;;1849552;76;26307;-40
2022/12/02 05:17:40;;;;;;;0.55;0.55;;;;;;;;;;1802956;78;26798;-39
2022/12/02 05:20:07;;;;;;;0.53;0.53;;;;;;;;;;1796636;78;26765;-37
2022/12/02 05:22:34;;;;;;;0.65;0.65;;;;;;;;;;1757155;81;26233;-39
2022/12/02 05:25:02;;;;;;;0.60;0.60;;;;;;;;;;1799101;78;26309;-39
2022/12/02 05:27:29;;;;;;;0.70;0.70;;;;;;;;;;1798588;78;26242;-39
2022/12/02 05:29:57;;;;;;;0.75;0.75;;;;;;;;;;1831899;77;26208;-37
2022/12/02 05:32:24;;;;;;;0.60;0.60;;;;;;;;;;1799501;78;26285;-41
2022/12/02 05:34:51;;;;;;;0.70;0.70;;;;;;;;;;1799468;79;27066;-41
2022/12/02 05:37:18;;;;;;;0.70;0.70;;;;;;;;;;1797709;79;26288;-37
2022/12/02 05:39:46;;;;;;;0.80;0.80;;;;;;;;;;1795160;78;26225;-37
2022/12/02 05:42:13;;;;;;;0.95;0.95;;;;;;;;;;1795535;78;26218;-41
2022/12/02 05:44:45;;;;;;;0.70;0.70;;;;;;;;;;1832985;77;26634;-41
2022/12/02 05:47:14;;;;;;;0.90;0.90;;;;;;;;;;1830784;77;26193;-37
2022/12/02 05:49:44;;;;;;;1.70;0.98;;;;;;;;;;1826781;77;26719;-39
2022/12/02 05:52:22;;;;;;;0.90;0.90;;;;;;;;;;1796373;78;26302;-37
2022/12/02 05:54:50;;;;;;;0.90;0.90;;;;;;;;;;1755188;80;26316;-36
2022/12/02 05:57:19;;;;;;;1.17;1.07;;;;;;;;;;1784651;80;26222;-45
2022/12/02 05:59:47;;;;;;;1.50;1.10;;;;;;;;;;1800656;78;26219;-43
2022/12/02 06:02:18;;;;;;;1.22;1.10;;;;;;;;;;1830138;78;26283;-41
2022/12/02 06:04:45;;;;;;;1.10;1.10;;;;;;;;;;1829218;77;26298;-37
2022/12/02 06:07:13;;;;;;;1.62;1.05;;;;;;;;;;1795439;78;26238;-40
2022/12/02 06:09:40;;;;;;;1.00;1.00;;;;;;;;;;1792861;78;26655;-37
2022/12/02 06:12:09;;;;;;;1.50;1.40;;;;;;;;;;1795432;78;26234;-37
2022/12/02 06:14:36;;;;;;;2.05;1.27;;;;;;;;;;1790865;78;26221;-47
2022/12/02 06:17:05;;;;;;;1.62;1.42;;;;;;;;;;1817649;77;26233;-39
2022/12/02 06:19:37;;;;;;;1.50;1.45;;;;;;;;;;1820096;77;26225;-41
2022/12/02 06:22:06;;;;;;;2.58;1.72;;;;;;;;;;1783482;79;26265;-37
2022/12/02 06:24:34;;;;;;;1.65;1.60;;;;;;;;;;1822708;77;26226;-38
2022/12/02 06:27:02;;;;;;;2.58;1.60;;;;;;;;;;1817348;77;26297;-42
2022/12/02 06:29:30;;;;;;;1.70;1.60;;;;;;;;;;1781303;79;26277;-41
2022/12/02 06:31:58;;;;;;;3.72;1.70;;;;;;;;;;1791539;79;26245;-37
2022/12/02 06:34:42;;;;;;;2.17;1.98;;;;;;;;;;1841230;76;26211;-41
2022/12/02 06:37:17;;;;;;;3.55;2.10;;;;;;;;;;1841285;78;26231;-39
2022/12/02 06:39:46;;;;;;;4.15;2.00;;;;;;;;;;1825468;76;26250;-40
2022/12/02 06:42:15;;;;;;;2.20;2.10;;;;;;;;;;1839393;78;26613;-42
2022/12/02 06:47:35;;;;;;;20.60;5.87;;;;;;;;;;1841551;76;26642;-41
2022/12/02 06:50:07;;;;;;;15.03;5.28;;;;;;;;;;1836226;76;26229;-45
2022/12/02 06:52:35;;;;;;;10.50;4.67;;;;;;;;;;1839873;76;26638;-41
2022/12/02 06:55:04;;;;;;;14.30;4.35;;;;;;;;;;1839437;76;26216;-41
2022/12/02 06:57:32;;;;;;;9.55;4.35;;;;;;;;;;1832010;76;26774;-38
2022/12/02 06:59:59;;;;;;;7.33;3.98;;;;;;;;;;1822274;77;26734;-37
2022/12/02 07:02:27;;;;;;;12.35;4.50;;;;;;;;;;1821213;77;26769;-37
2022/12/02 07:04:55;;;;;;;9.28;4.15;;;;;;;;;;1820480;77;26230;-38
2022/12/02 07:07:23;;;;;;;10.00;4.12;;;;;;;;;;1791356;79;26252;-44
2022/12/02 07:09:55;;;;;;;8.73;3.95;;;;;;;;;;1844425;77;26227;-40
2022/12/02 07:12:23;;;;;;;7.62;3.98;;;;;;;;;;1844570;78;26207;-43
2022/12/02 07:14:58;;;;;;;9.18;3.85;;;;;;;;;;1839912;76;26226;-37
2022/12/02 07:17:33;;;;;;;5.83;3.55;;;;;;;;;;1810214;77;26230;-37
2022/12/02 07:20:01;;;;;;;7.25;3.65;;;;;;;;;;1823118;78;26745;-37
2022/12/02 07:22:30;;;;;;;6.72;3.52;;;;;;;;;;1824561;77;26845;-39
2022/12/02 07:24:59;;;;;;;6.95;3.30;;;;;;;;;;1824013;77;26628;-40
2022/12/02 07:27:27;;;;;;;6.95;3.30;;;;;;;;;;1824740;77;27050;-41
2022/12/02 07:29:55;;;;;;;3.98;3.20;;;;;;;;;;1825653;77;26257;-40
2022/12/02 07:32:23;;;;;;;3.20;2.90;;;;;;;;;;1821452;77;26596;-41
2022/12/02 07:34:50;;;;;;;5.78;3.08;;;;;;;;;;1795401;80;26844;-37
2022/12/02 07:37:17;;;;;;;3.02;2.75;;;;;;;;;;1788774;79;26223;-41
2022/12/02 07:39:45;;;;;;;2.70;2.50;;;;;;;;;;1783656;80;26242;-41
2022/12/02 07:42:13;;;;;;;4.65;2.72;;;;;;;;;;1785731;79;26207;-39
2022/12/02 07:44:41;;;;;;;4.15;2.77;;;;;;;;;;1784993;79;26203;-39
2022/12/02 07:47:08;;;;;;;3.37;2.70;;;;;;;;;;1831626;76;26204;-40
2022/12/02 07:49:35;;;;;;;3.17;2.40;;;;;;;;;;1832332;77;26298;-41
2022/12/02 07:52:02;;;;;;;2.92;2.65;;;;;;;;;;1794641;78;26313;-39
2022/12/02 07:54:30;;;;;;;2.87;2.42;;;;;;;;;;1801098;78;26277;-41
2022/12/02 07:56:57;;;;;;;3.45;2.30;;;;;;;;;;1799373;78;26226;-42
2022/12/02 07:59:24;;;;;;;2.60;2.40;;;;;;;;;;1798876;78;26234;-40
2022/12/02 08:01:51;;;;;;;2.40;2.10;;;;;;;;;;1797351;78;26254;-40
2022/12/02 08:04:19;;;;;;;2.60;2.40;;;;;;;;;;1789101;79;28691;-40
2022/12/02 08:06:46;;;;;;;3.15;2.10;;;;;;;;;;1799330;78;26239;-40
2022/12/02 08:09:13;;;;;;;1.90;1.80;;;;;;;;;;1798707;79;26770;-39
2022/12/02 08:11:40;;;;;;;2.27;2.10;;;;;;;;;;1795503;79;26616;-36
2022/12/02 08:14:08;;;;;;;2.10;2.00;;;;;;;;;;1796686;79;26218;-36
2022/12/02 08:16:35;;;;;;;1.90;1.80;;;;;;;;;;1818946;78;26317;-41
2022/12/02 08:19:03;;;;;;;2.30;2.10;;;;;;;;;;1846048;77;26207;-40
2022/12/02 08:21:31;;;;;;;2.27;1.80;;;;;;;;;;1847990;76;26263;-41
2022/12/02 08:23:58;;;;;;;2.72;2.25;;;;;;;;;;1830389;78;26176;-37
2022/12/02 08:26:25;;;;;;;1.80;1.70;;;;;;;;;;1831455;77;26780;-42
2022/12/02 08:28:53;;;;;;;2.10;1.70;;;;;;;;;;1830181;77;26799;-40
2022/12/02 08:31:20;;;;;;;1.80;1.70;;;;;;;;;;1831662;77;26732;-37
2022/12/02 08:33:47;;;;;;;2.05;1.90;;;;;;;;;;1831637;77;26229;-37
2022/12/02 08:36:15;;;;;;;4.62;1.80;;;;;;;;;;1800653;79;26212;-38
2022/12/02 08:38:42;;;;;;;2.62;2.00;;;;;;;;;;1799752;78;26246;-40
2022/12/02 08:41:10;;;;;;;1.80;1.70;;;;;;;;;;1802095;78;26253;-38
2022/12/02 08:43:37;;;;;;;1.65;1.55;;;;;;;;;;1833931;77;26630;-40
2022/12/02 08:46:06;;;;;;;1.80;1.70;;;;;;;;;;1832129;76;28267;-36
2022/12/02 08:48:33;;;;;;;1.80;1.80;;;;;;;;;;1845468;76;26235;-39
2022/12/02 08:51:01;;;;;;;1.80;1.70;;;;;;;;;;1846717;76;26219;-39
2022/12/02 08:53:28;;;;;;;1.55;1.45;;;;;;;;;;1829791;77;26759;-40
2022/12/02 08:55:55;;;;;;;1.80;1.70;;;;;;;;;;1803922;78;26220;-40
2022/12/02 08:58:23;;;;;;;1.80;1.77;;;;;;;;;;1829414;77;26217;-38
2022/12/02 09:00:50;;;;;;;1.90;1.80;;;;;;;;;;1800355;78;26410;-40
2022/12/02 09:03:17;;;;;;;2.55;1.80;;;;;;;;;;1830645;77;26198;-36
2022/12/02 09:05:45;;;;;;;1.80;1.70;;;;;;;;;;1830704;77;24730;-39
2022/12/02 09:08:12;;;;;;;2.10;1.92;;;;;;;;;;1828865;77;26254;-39
2022/12/02 09:10:39;;;;;;;1.98;1.87;;;;;;;;;;1802451;78;26286;-39
2022/12/02 09:13:06;;;;;;;1.90;1.80;;;;;;;;;;1832321;77;26222;-40
2022/12/02 09:15:34;;;;;;;1.77;1.67;;;;;;;;;;1848634;76;26270;-38
2022/12/02 09:18:01;;;;;;;1.62;1.62;;;;;;;;;;1832957;77;26210;-39
2022/12/02 09:20:28;;;;;;;1.55;1.50;;;;;;;;;;1831241;77;26294;-41
2022/12/02 09:22:55;;;;;;;1.70;1.70;;;;;;;;;;1799083;79;26307;-40
2022/12/02 09:25:23;;;;;;;1.55;1.50;;;;;;;;;;1831035;77;27189;-38
2022/12/02 09:27:50;;;;;;;1.70;1.60;;;;;;;;;;1800922;78;26179;-37
2022/12/02 09:30:17;;;;;;;1.70;1.60;;;;;;;;;;1830991;77;26213;-41
2022/12/02 09:32:45;;;;;;;1.80;1.70;;;;;;;;;;1824324;77;26299;-39
2022/12/02 09:35:12;;;;;;;1.25;1.25;;;;;;;;;;1833017;77;26690;-40
2022/12/02 09:37:39;;;;;;;1.57;1.57;;;;;;;;;;1830663;77;26236;-38
2022/12/02 09:40:07;;;;;;;1.40;1.40;;;;;;;;;;1833283;77;26219;-41
2022/12/02 09:42:35;;;;;;;1.55;1.45;;;;;;;;;;1834408;77;26647;-40
2022/12/02 09:45:03;;;;;;;1.52;1.50;;;;;;;;;;1831198;77;26322;-38
2022/12/02 09:47:30;;;;;;;2.55;1.52;;;;;;;;;;1799851;79;26265;-43
2022/12/02 09:49:58;;;;;;;1.50;1.40;;;;;;;;;;1853919;76;26231;-41
2022/12/02 09:52:26;;;;;;;1.52;1.52;;;;;;;;;;1827308;77;27078;-38
2022/12/02 09:54:53;;;;;;;1.32;1.32;;;;;;;;;;1830736;77;26829;-39
2022/12/02 09:57:22;;;;;;;2.08;1.50;;;;;;;;;;1830659;77;26295;-41
2022/12/02 09:59:49;;;;;;;1.40;1.40;;;;;;;;;;1827531;77;26681;-40
2022/12/02 10:02:24;;;;;;;1.30;1.30;;;;;;;;;;1835126;77;26590;-39
2022/12/02 10:04:51;;;;;;;1.27;1.27;;;;;;;;;;1830713;77;26285;-40
2022/12/02 10:07:18;;;;;;;1.25;1.25;;;;;;;;;;1827178;77;26618;-37
2022/12/02 10:09:46;;;;;;;1.95;1.25;;;;;;;;;;1830836;77;26792;-39
2022/12/02 10:12:14;;;;;;;1.32;1.30;;;;;;;;;;1831076;77;26265;-45
2022/12/02 10:14:43;;;;;;;1.40;1.40;;;;;;;;;;1830992;77;26269;-40
2022/12/02 10:17:14;;;;;;;1.20;1.20;;;;;;;;;;1815182;77;26794;-38
2022/12/02 10:19:41;;;;;;;1.30;1.30;;;;;;;;;;1832616;75;26188;-43
2022/12/02 10:22:15;;;;;;;1.22;1.22;;;;;;;;;;1831496;77;26258;-41
2022/12/02 10:24:43;;;;;;;1.20;1.20;;;;;;;;;;1833369;77;26670;-39
2022/12/02 10:27:11;;;;;;;1.20;1.20;;;;;;;;;;1837011;77;26220;-38
2022/12/02 10:29:39;;;;;;;1.30;1.20;;;;;;;;;;1824745;77;26225;-40
2022/12/02 10:32:08;;;;;;;2.98;1.50;;;;;;;;;;1833705;77;26653;-43
2022/12/02 10:34:35;;;;;;;1.60;1.50;;;;;;;;;;1825213;76;26653;-45
2022/12/02 10:37:19;;;;;;;1.57;1.40;;;;;;;;;;1830726;76;26248;-40
2022/12/02 10:39:46;;;;;;;1.92;1.82;;;;;;;;;;1796754;78;26695;-38
2022/12/02 10:42:19;;;;;;;1.95;1.85;;;;;;;;;;1795977;78;26222;-40
2022/12/02 10:44:45;;;;;;;2.20;2.00;;;;;;;;;;1796083;78;26234;-39
2022/12/02 10:47:13;;;;;;;2.10;1.92;;;;;;;;;;1803239;78;26311;-40
2022/12/02 10:49:45;;;;;;;1.82;1.72;;;;;;;;;;1832443;76;26315;-41
2022/12/02 10:52:14;;;;;;;2.58;1.90;;;;;;;;;;1832589;76;26196;-35
2022/12/02 10:54:42;;;;;;;2.05;1.72;;;;;;;;;;1795895;78;26282;-38
2022/12/02 10:57:11;;;;;;;2.10;2.00;;;;;;;;;;1793999;78;26227;-40
2022/12/02 10:59:40;;;;;;;1.80;1.70;;;;;;;;;;1793775;78;26257;-40
2022/12/02 11:02:14;;;;;;;3.62;1.90;;;;;;;;;;1792031;80;26302;-39
2022/12/02 11:04:42;;;;;;;2.30;2.20;;;;;;;;;;1791965;78;26957;-37
2022/12/02 11:07:10;;;;;;;1.70;1.60;;;;;;;;;;1791468;78;26273;-39
2022/12/02 11:09:39;;;;;;;2.67;1.87;;;;;;;;;;1792216;78;26278;-49
2022/12/02 11:12:24;;;;;;;3.70;1.77;;;;;;;;;;1793823;78;26238;-39
2022/12/02 11:14:52;;;;;;;4.22;1.80;;;;;;;;;;1791696;78;26872;-39
2022/12/02 11:17:21;;;;;;;1.90;1.80;;;;;;;;;;1793723;78;26293;-39
2022/12/02 11:19:48;;;;;;;3.05;1.80;;;;;;;;;;1788949;78;26237;-36
2022/12/02 11:22:34;;;;;;;1.60;1.50;;;;;;;;;;1792871;78;26651;-36
2022/12/02 11:25:01;;;;;;;3.30;1.72;;;;;;;;;;1791302;78;26293;-39
2022/12/02 11:27:28;;;;;;;2.80;1.60;;;;;;;;;;1794810;78;26289;-38
2022/12/02 11:30:06;;;;;;;2.98;1.75;;;;;;;;;;1792862;78;26742;-37
2022/12/02 11:32:38;;;;;;;2.75;1.80;;;;;;;;;;1793327;78;26741;-43
2022/12/02 11:35:06;;;;;;;1.87;1.52;;;;;;;;;;1793967;78;25728;-40
2022/12/02 11:37:35;;;;;;;2.87;1.60;;;;;;;;;;1791846;79;26927;-38
2022/12/02 11:40:07;;;;;;;8.38;1.90;;;;;;;;;;1793242;80;26790;-39
2022/12/02 11:42:35;;;;;;;2.75;1.75;;;;;;;;;;1789824;78;26293;-41
2022/12/02 11:45:18;;;;;;;2.52;1.55;;;;;;;;;;1794164;78;26305;-37
2022/12/02 11:47:47;;;;;;;2.62;1.67;;;;;;;;;;1793681;79;26191;-39
2022/12/02 11:50:16;;;;;;;2.75;1.70;;;;;;;;;;1790675;78;26335;-40
2022/12/02 11:52:44;;;;;;;2.25;1.80;;;;;;;;;;1793270;78;26833;-39
2022/12/02 11:55:16;;;;;;;1.82;1.72;;;;;;;;;;1792316;78;26225;-42
2022/12/02 11:57:45;;;;;;;1.70;1.60;;;;;;;;;;1790527;78;26249;-41
2022/12/02 12:00:23;;;;;;;2.85;1.40;;;;;;;;;;1791971;78;26236;-40
2022/12/02 12:03:06;;;;;;;1.82;1.72;;;;;;;;;;1792602;78;26313;-39
2022/12/02 12:05:33;;;;;;;1.52;1.40;;;;;;;;;;1793460;78;26333;-40
2022/12/02 12:08:01;;;;;;;1.50;1.40;;;;;;;;;;1794253;78;26210;-43
2022/12/02 12:10:32;;;;;;;4.42;1.32;;;;;;;;;;1793126;78;26234;-37
2022/12/02 12:13:00;;;;;;;1.30;1.30;;;;;;;;;;1793641;78;26315;-39
2022/12/02 12:15:46;;;;;;;1.30;1.30;;;;;;;;;;1784505;78;26275;-39
2022/12/02 12:18:15;;;;;;;1.40;1.30;;;;;;;;;;1790935;78;26282;-40
2022/12/02 12:20:42;;;;;;;1.57;1.20;;;;;;;;;;1787485;78;26650;-46
2022/12/02 12:23:26;;;;;;;1.50;1.40;;;;;;;;;;1789329;80;26231;-47
2022/12/02 12:25:53;;;;;;;1.67;1.35;;;;;;;;;;1791073;79;26821;-36
2022/12/02 12:28:25;;;;;;;1.50;1.40;;;;;;;;;;1792106;78;26239;-38
2022/12/02 12:30:52;;;;;;;1.10;1.10;;;;;;;;;;1788554;79;26315;-36
2022/12/02 12:33:20;;;;;;;1.20;1.20;;;;;;;;;;1791122;78;26200;-36
2022/12/02 12:35:47;;;;;;;1.20;1.17;;;;;;;;;;1794294;78;26687;-36
2022/12/02 12:38:15;;;;;;;1.47;1.37;;;;;;;;;;1793103;78;26312;-43
2022/12/02 12:40:42;;;;;;;1.10;1.10;;;;;;;;;;1790771;78;26783;-43
2022/12/02 12:43:09;;;;;;;1.80;1.40;;;;;;;;;;1795258;78;26269;-38
2022/12/02 12:45:36;;;;;;;1.15;1.15;;;;;;;;;;1793168;78;25582;-40
2022/12/02 12:48:04;;;;;;;1.40;1.30;;;;;;;;;;1790940;78;26664;-37
2022/12/02 12:50:31;;;;;;;1.00;1.00;;;;;;;;;;1792146;78;26302;-44
2022/12/02 12:52:59;;;;;;;1.07;1.07;;;;;;;;;;1790677;78;26221;-43
2022/12/02 12:55:26;;;;;;;1.27;1.22;;;;;;;;;;1792018;78;26241;-39
2022/12/02 12:57:53;;;;;;;1.12;1.12;;;;;;;;;;1790393;78;26926;-37
2022/12/02 13:00:21;;;;;;;1.20;1.20;;;;;;;;;;1791620;78;26301;-37
2022/12/02 13:02:48;;;;;;;1.22;1.20;;;;;;;;;;1791193;78;26245;-54
2022/12/02 13:05:15;;;;;;;1.12;1.10;;;;;;;;;;1792348;78;26252;-44
2022/12/02 13:07:42;;;;;;;1.20;1.20;;;;;;;;;;1792798;78;26364;-44
2022/12/02 13:10:10;;;;;;;1.25;1.25;;;;;;;;;;1791281;78;26297;-42
2022/12/02 13:12:37;;;;;;;1.00;1.00;;;;;;;;;;1790188;78;26262;-43
2022/12/02 13:15:05;;;;;;;1.87;1.20;;;;;;;;;;1794741;78;26242;-45
2022/12/02 13:17:32;;;;;;;2.77;1.20;;;;;;;;;;1793588;78;26606;-43
2022/12/02 13:19:59;;;;;;;1.00;1.00;;;;;;;;;;1794171;78;26230;-52
2022/12/02 13:22:27;;;;;;;1.20;1.20;;;;;;;;;;1794064;78;26726;-52
2022/12/02 13:24:54;;;;;;;1.52;1.25;;;;;;;;;;1794025;78;26722;-38
2022/12/02 13:27:21;;;;;;;1.10;1.10;;;;;;;;;;1793327;78;26739;-43
2022/12/02 13:29:49;;;;;;;1.37;1.35;;;;;;;;;;1793901;78;26255;-40
2022/12/02 13:32:16;;;;;;;1.35;1.20;;;;;;;;;;1794513;78;26355;-43
2022/12/02 13:34:43;;;;;;;1.25;1.20;;;;;;;;;;1795274;78;26824;-38
2022/12/02 13:37:10;;;;;;;2.05;1.25;;;;;;;;;;1792579;78;26336;-43
2022/12/02 13:39:38;;;;;;;1.42;1.40;;;;;;;;;;1791976;78;26280;-46
2022/12/02 13:42:05;;;;;;;1.30;1.30;;;;;;;;;;1793623;78;26238;-43
2022/12/02 13:44:32;;;;;;;1.47;1.40;;;;;;;;;;1794268;78;26647;-39
2022/12/02 13:47:00;;;;;;;1.90;1.12;;;;;;;;;;1793033;78;26284;-41
2022/12/02 13:49:27;;;;;;;3.15;1.27;;;;;;;;;;1794636;78;26218;-40
2022/12/02 13:51:56;;;;;;;1.30;1.30;;;;;;;;;;1791301;78;26290;-38
2022/12/02 13:54:23;;;;;;;1.30;1.30;;;;;;;;;;1793355;78;26727;-43
2022/12/02 13:56:51;;;;;;;1.20;1.10;;;;;;;;;;1793876;78;26241;-43
2022/12/02 13:59:18;;;;;;;1.35;1.35;;;;;;;;;;1792759;78;26907;-39
2022/12/02 14:01:45;;;;;;;1.50;1.40;;;;;;;;;;1793604;78;26222;-39
2022/12/02 14:04:13;;;;;;;1.37;1.37;;;;;;;;;;1793446;78;26231;-37
2022/12/02 14:06:40;;;;;;;1.40;1.40;;;;;;;;;;1794555;78;26203;-36
2022/12/02 14:09:07;;;;;;;1.42;1.42;;;;;;;;;;1792881;80;26355;-39
2022/12/02 14:11:35;;;;;;;1.40;1.40;;;;;;;;;;1793196;78;26340;-43
2022/12/02 14:14:02;;;;;;;1.37;1.37;;;;;;;;;;1793375;78;26222;-45
2022/12/02 14:16:29;;;;;;;1.55;1.50;;;;;;;;;;1794306;78;26367;-42
2022/12/02 14:18:57;;;;;;;1.30;1.30;;;;;;;;;;1795623;78;26765;-42
2022/12/02 14:21:24;;;;;;;1.32;1.32;;;;;;;;;;1801201;79;26801;-40
2022/12/02 14:23:52;;;;;;;1.67;1.30;;;;;;;;;;1800083;78;26233;-38
2022/12/02 14:26:19;;;;;;;1.47;1.47;;;;;;;;;;1806059;78;26237;-48
2022/12/02 14:28:46;;;;;;;1.20;1.20;;;;;;;;;;1808600;78;26683;-37
2022/12/02 14:31:13;;;;;;;1.50;1.40;;;;;;;;;;1805912;78;26293;-42
2022/12/02 14:33:41;;;;;;;1.42;1.42;;;;;;;;;;1772445;80;26240;-36
2022/12/02 14:36:08;;;;;;;1.40;1.40;;;;;;;;;;1772942;80;26293;-38
2022/12/02 14:38:35;;;;;;;1.60;1.60;;;;;;;;;;1809235;78;25841;-37
2022/12/02 14:41:02;;;;;;;1.40;1.40;;;;;;;;;;1810471;78;25698;-44
2022/12/02 14:43:30;;;;;;;1.40;1.40;;;;;;;;;;1808990;78;26672;-42
2022/12/02 14:45:57;;;;;;;1.42;1.42;;;;;;;;;;1807239;78;26687;-35
2022/12/02 14:48:24;;;;;;;1.50;1.40;;;;;;;;;;1809213;78;27133;-36
2022/12/02 14:50:53;;;;;;;1.55;1.45;;;;;;;;;;1812534;78;26258;-39
2022/12/02 14:53:22;;;;;;;1.40;1.40;;;;;;;;;;1794160;80;26233;-37
2022/12/02 14:55:50;;;;;;;1.35;1.35;;;;;;;;;;1794997;78;26308;-36